Time;durP1;ratioP1;P1;durP2;ratioP2;P2;SDS_P1;SDS_P2;PMS_P1;PMS_P2;Temp;Humidity;BMP_temperature;BMP_pressure;BME280_temperature;BME280_humidity;BME280_pressure;Samples;Min_cycle;Max_cycle;Signal;HPM_P1;HPM_P2
2023/06/14 00:00:18;;;;;;;13.33;7.20;;;17.80;52.80;;;;;;5046002;28;20182;-74
2023/06/14 00:02:43;;;;;;;9.90;5.90;;;17.70;53.20;;;;;;5046624;28;20623;-73
2023/06/14 00:05:11;;;;;;;11.40;6.40;;;17.50;53.70;;;;;;5043071;28;20221;-73
2023/06/14 00:07:42;;;;;;;10.03;6.37;;;17.40;54.40;;;;;;5045255;28;20963;-72
2023/06/14 00:10:09;;;;;;;8.93;6.00;;;17.20;54.50;;;;;;5048763;28;20450;-73
2023/06/14 00:12:35;;;;;;;11.40;6.63;;;17.20;54.40;;;;;;5047885;28;20543;-72
2023/06/14 00:15:03;;;;;;;11.90;7.00;;;17.10;54.80;;;;;;5044437;28;20862;-72
2023/06/14 00:17:30;;;;;;;11.70;7.10;;;17.10;54.80;;;;;;5032203;28;20557;-73
2023/06/14 00:19:59;;;;;;;10.07;6.50;;;17.10;54.40;;;;;;5045270;28;20425;-72
2023/06/14 00:22:25;;;;;;;11.43;6.47;;;17.10;54.20;;;;;;5048684;28;20458;-74
2023/06/14 00:24:53;;;;;;;12.37;6.70;;;17.20;54.20;;;;;;5045141;28;20415;-72
2023/06/14 00:27:19;;;;;;;11.73;6.27;;;17.10;54.40;;;;;;5052747;28;20428;-74
2023/06/14 00:29:44;;;;;;;10.63;6.30;;;17.20;54.80;;;;;;5045787;28;20839;-72
2023/06/14 00:32:10;;;;;;;11.17;7.20;;;17.20;55.30;;;;;;5047289;28;20202;-72
2023/06/14 00:34:35;;;;;;;9.47;6.53;;;17.20;55.30;;;;;;5051387;28;20217;-73
2023/06/14 00:37:01;;;;;;;8.57;5.43;;;17.10;55.70;;;;;;5050432;28;20189;-73
2023/06/14 00:39:27;;;;;;;7.63;6.03;;;17.00;55.80;;;;;;5047242;28;20200;-72
2023/06/14 00:41:52;;;;;;;13.90;6.63;;;17.00;56.10;;;;;;5046138;28;20208;-71
2023/06/14 00:44:18;;;;;;;11.93;6.20;;;16.80;55.70;;;;;;5046530;28;20655;-72
2023/06/14 00:46:46;;;;;;;9.00;6.20;;;16.70;56.00;;;;;;5045322;28;20220;-72
2023/06/14 00:49:15;;;;;;;11.00;6.47;;;16.70;56.00;;;;;;5045151;28;20204;-73
2023/06/14 00:51:41;;;;;;;8.30;5.60;;;16.70;56.10;;;;;;5046867;28;20442;-73
2023/06/14 00:54:06;;;;;;;12.00;6.90;;;16.60;56.90;;;;;;5045108;28;20423;-73
2023/06/14 00:56:32;;;;;;;9.47;6.10;;;16.50;57.40;;;;;;5040502;28;20465;-71
2023/06/14 00:58:58;;;;;;;7.60;5.53;;;16.40;58.00;;;;;;5044066;28;20603;-73
2023/06/14 01:01:24;;;;;;;9.20;6.37;;;16.20;58.50;;;;;;5044060;28;20181;-73
2023/06/14 01:03:51;;;;;;;8.93;6.20;;;16.10;58.80;;;;;;5046925;28;20204;-73
2023/06/14 01:06:41;;;;;;;9.33;6.67;;;16.10;59.10;;;;;;5044317;28;20184;-73
2023/06/14 01:09:17;;;;;;;9.30;6.33;;;16.10;59.10;;;;;;5049194;28;20459;-71
2023/06/14 01:12:04;;;;;;;14.63;5.70;;;16.20;58.80;;;;;;5042694;28;20437;-72
2023/06/14 01:14:32;;;;;;;9.80;6.37;;;16.30;58.40;;;;;;5044716;28;20420;-73
2023/06/14 01:17:00;;;;;;;13.80;6.40;;;16.30;57.80;;;;;;5049044;28;20920;-75
2023/06/14 01:19:27;;;;;;;11.03;6.20;;;16.40;57.30;;;;;;5048693;28;20426;-72
2023/06/14 01:21:55;;;;;;;8.77;5.63;;;16.40;57.00;;;;;;5047699;28;20552;-73
2023/06/14 01:24:25;;;;;;;9.80;5.90;;;16.40;55.80;;;;;;5033155;28;20423;-72
2023/06/14 01:26:55;;;;;;;8.13;5.67;;;16.40;55.40;;;;;;5050721;28;20434;-73
2023/06/14 01:29:23;;;;;;;10.27;5.70;;;16.40;55.30;;;;;;5044449;28;20507;-73
2023/06/14 01:31:50;;;;;;;8.57;5.80;;;16.30;55.30;;;;;;5040969;28;20457;-74
2023/06/14 01:34:15;;;;;;;12.20;6.40;;;16.30;56.10;;;;;;5034669;28;20438;-73
2023/06/14 01:36:43;;;;;;;9.90;6.10;;;16.30;56.40;;;;;;5031634;28;20427;-73
2023/06/14 01:39:13;;;;;;;9.00;5.33;;;16.30;57.70;;;;;;5041972;28;20228;-71
2023/06/14 01:41:40;;;;;;;9.67;5.60;;;16.40;58.40;;;;;;5030894;28;20468;-72
2023/06/14 01:44:07;;;;;;;11.17;6.23;;;16.40;57.60;;;;;;5041894;28;21368;-72
2023/06/14 01:46:32;;;;;;;10.50;5.87;;;16.30;58.20;;;;;;5048153;28;20533;-72
2023/06/14 01:48:59;;;;;;;9.57;6.33;;;16.10;59.20;;;;;;5048071;28;20562;-71
2023/06/14 01:51:25;;;;;;;10.00;6.03;;;15.90;59.70;;;;;;5050373;28;20656;-70
2023/06/14 01:53:50;;;;;;;10.40;6.37;;;15.80;60.10;;;;;;5042784;28;20434;-71
2023/06/14 01:56:16;;;;;;;15.40;6.67;;;15.60;60.90;;;;;;5029764;28;20202;-70
2023/06/14 01:58:42;;;;;;;10.10;6.20;;;15.60;61.00;;;;;;5053488;28;20279;-70
2023/06/14 02:01:07;;;;;;;12.40;6.40;;;15.60;61.00;;;;;;5053086;28;20181;-72
2023/06/14 02:03:34;;;;;;;11.30;6.70;;;15.50;59.60;;;;;;5027199;28;20220;-70
2023/06/14 02:05:59;;;;;;;9.37;6.30;;;15.50;60.10;;;;;;5046778;28;20437;-70
2023/06/14 02:08:25;;;;;;;12.90;6.50;;;15.60;61.30;;;;;;5049062;28;21088;-71
2023/06/14 02:10:51;;;;;;;10.93;6.40;;;15.60;60.60;;;;;;5033498;28;20559;-70
2023/06/14 02:13:17;;;;;;;9.40;6.60;;;15.50;60.90;;;;;;5032323;28;20270;-70
2023/06/14 02:15:43;;;;;;;8.60;6.20;;;15.50;61.30;;;;;;5049869;28;20425;-71
2023/06/14 02:18:09;;;;;;;10.63;6.37;;;15.40;61.50;;;;;;5044590;28;20642;-70
2023/06/14 02:20:35;;;;;;;12.13;6.73;;;15.40;61.30;;;;;;5043800;28;20454;-71
2023/06/14 02:23:01;;;;;;;8.57;6.40;;;15.40;61.70;;;;;;5041662;28;20540;-71
2023/06/14 02:25:30;;;;;;;14.50;7.87;;;15.40;61.20;;;;;;5030141;28;20433;-70
2023/06/14 02:27:56;;;;;;;9.03;6.40;;;15.40;60.10;;;;;;5031540;28;20354;-70
2023/06/14 02:30:21;;;;;;;10.60;6.40;;;15.40;60.40;;;;;;5043844;28;20493;-71
2023/06/14 02:32:48;;;;;;;11.10;6.53;;;15.50;61.30;;;;;;5043788;28;20236;-71
2023/06/14 02:35:14;;;;;;;10.77;7.07;;;15.40;61.90;;;;;;5046007;28;20181;-69
2023/06/14 02:37:40;;;;;;;8.87;5.63;;;15.50;62.20;;;;;;5044377;28;20455;-71
2023/06/14 02:40:08;;;;;;;11.80;6.77;;;15.30;62.50;;;;;;5045596;28;20450;-70
2023/06/14 02:42:34;;;;;;;9.07;6.40;;;15.10;63.40;;;;;;5051792;28;20466;-72
2023/06/14 02:45:00;;;;;;;10.77;6.30;;;14.90;63.90;;;;;;5050336;28;20448;-71
2023/06/14 02:47:26;;;;;;;10.13;7.00;;;14.80;64.20;;;;;;5047848;28;20724;-71
2023/06/14 02:49:51;;;;;;;12.57;6.27;;;14.80;64.50;;;;;;5057422;28;20432;-69
2023/06/14 02:52:17;;;;;;;10.93;7.00;;;14.70;64.70;;;;;;5059587;28;20219;-70
2023/06/14 02:54:42;;;;;;;14.97;8.03;;;14.60;64.80;;;;;;5066052;28;20244;-73
2023/06/14 02:57:08;;;;;;;8.60;5.90;;;14.60;65.00;;;;;;5053151;28;20205;-71
2023/06/14 02:59:35;;;;;;;12.77;6.67;;;14.60;65.10;;;;;;5063724;28;20189;-70
2023/06/14 03:02:00;;;;;;;14.50;6.43;;;14.60;65.10;;;;;;5058766;28;20212;-69
2023/06/14 03:04:26;;;;;;;11.40;6.60;;;14.60;65.30;;;;;;5049455;28;20426;-70
2023/06/14 03:06:53;;;;;;;12.13;6.70;;;14.60;65.40;;;;;;5031226;28;20212;-71
2023/06/14 03:09:20;;;;;;;10.50;6.13;;;14.60;65.60;;;;;;5042171;28;20555;-70
2023/06/14 03:11:45;;;;;;;9.37;6.73;;;14.50;65.70;;;;;;5042420;28;20507;-70
2023/06/14 03:14:13;;;;;;;11.37;7.40;;;14.60;65.10;;;;;;5042625;28;20435;-69
2023/06/14 03:16:38;;;;;;;13.57;6.47;;;14.70;64.20;;;;;;5049288;28;20185;-70
2023/06/14 03:19:04;;;;;;;11.10;7.00;;;14.60;64.40;;;;;;5035807;28;20429;-71
2023/06/14 03:21:30;;;;;;;9.50;5.97;;;14.60;64.10;;;;;;5036904;28;20191;-72
2023/06/14 03:23:55;;;;;;;11.40;6.70;;;14.60;64.40;;;;;;5047987;28;20243;-71
2023/06/14 03:26:22;;;;;;;8.57;6.33;;;14.70;64.10;;;;;;5038396;28;20247;-70
2023/06/14 03:28:51;;;;;;;13.30;6.90;;;14.70;63.90;;;;;;5050982;28;20216;-71
2023/06/14 03:31:16;;;;;;;12.20;6.70;;;14.70;64.10;;;;;;5042759;28;20844;-70
2023/06/14 03:33:42;;;;;;;8.33;6.33;;;14.70;64.40;;;;;;5043658;28;20469;-71
2023/06/14 03:36:08;;;;;;;9.00;6.50;;;14.80;64.80;;;;;;5043052;28;20195;-70
2023/06/14 03:38:34;;;;;;;9.93;7.07;;;14.80;64.80;;;;;;5047181;28;20202;-72
2023/06/14 03:40:59;;;;;;;19.40;7.47;;;14.80;65.00;;;;;;5042534;28;20210;-70
2023/06/14 03:43:25;;;;;;;11.30;7.50;;;14.80;65.10;;;;;;5046624;28;21007;-70
2023/06/14 03:45:51;;;;;;;12.50;7.67;;;14.70;65.10;;;;;;5032314;28;20256;-72
2023/06/14 03:48:16;;;;;;;10.83;7.03;;;14.80;65.10;;;;;;5049078;28;20303;-72
2023/06/14 03:50:42;;;;;;;10.73;5.80;;;14.90;65.00;;;;;;5049246;28;20187;-72
2023/06/14 03:53:08;;;;;;;10.07;6.30;;;14.90;64.20;;;;;;5043380;28;20298;-71
2023/06/14 03:55:34;;;;;;;10.90;6.47;;;15.00;64.10;;;;;;5047348;28;20915;-72
2023/06/14 03:58:00;;;;;;;12.03;6.77;;;15.00;64.20;;;;;;5049386;28;20922;-70
2023/06/14 04:00:26;;;;;;;10.83;6.40;;;14.90;64.80;;;;;;5048007;28;20419;-70
2023/06/14 04:02:52;;;;;;;10.20;7.03;;;14.80;65.30;;;;;;5049796;28;20225;-71
2023/06/14 04:05:19;;;;;;;7.80;6.17;;;14.90;65.00;;;;;;5053872;28;20423;-73
2023/06/14 04:07:45;;;;;;;9.80;7.10;;;14.80;64.80;;;;;;5040773;28;20202;-70
2023/06/14 04:10:12;;;;;;;11.03;6.90;;;14.90;65.40;;;;;;5049993;28;20421;-71
2023/06/14 04:12:38;;;;;;;9.57;6.20;;;14.90;65.30;;;;;;5041860;28;20492;-71
2023/06/14 04:15:06;;;;;;;8.20;6.30;;;15.00;65.10;;;;;;5031141;28;20461;-72
2023/06/14 04:17:35;;;;;;;13.20;7.70;;;15.10;64.50;;;;;;5042725;28;20195;-70
2023/06/14 04:20:02;;;;;;;17.67;7.60;;;15.00;64.70;;;;;;5045829;28;20520;-71
2023/06/14 04:22:28;;;;;;;11.60;7.33;;;15.10;64.80;;;;;;5036247;28;20487;-71
2023/06/14 04:24:57;;;;;;;9.70;5.93;;;15.10;65.00;;;;;;5048961;28;20808;-70
2023/06/14 04:27:25;;;;;;;11.63;6.70;;;15.00;65.40;;;;;;5037937;28;20189;-71
2023/06/14 04:29:56;;;;;;;9.73;6.90;;;14.70;66.00;;;;;;5052811;28;20442;-70
2023/06/14 04:32:38;;;;;;;10.87;6.30;;;14.60;66.70;;;;;;5052542;28;20452;-71
2023/06/14 04:35:07;;;;;;;11.90;6.90;;;14.60;66.90;;;;;;5050389;28;20469;-70
2023/06/14 04:37:33;;;;;;;13.70;7.20;;;14.60;66.70;;;;;;5054260;28;20417;-72
2023/06/14 04:39:58;;;;;;;10.43;6.63;;;14.70;66.90;;;;;;5051168;28;20441;-71
2023/06/14 04:42:30;;;;;;;10.33;6.77;;;14.80;66.40;;;;;;5030887;28;20279;-71
2023/06/14 04:44:56;;;;;;;10.87;7.00;;;15.00;65.80;;;;;;5052468;28;20196;-71
2023/06/14 04:47:24;;;;;;;12.20;6.50;;;15.00;65.60;;;;;;5050703;28;20438;-70
2023/06/14 04:49:52;;;;;;;14.10;7.30;;;15.00;65.60;;;;;;5028207;28;20444;-72
2023/06/14 04:52:20;;;;;;;13.57;6.40;;;15.20;64.80;;;;;;5047867;28;20535;-71
2023/06/14 04:54:47;;;;;;;11.83;7.33;;;15.30;64.50;;;;;;5035608;28;20515;-70
2023/06/14 04:57:17;;;;;;;8.90;6.87;;;15.30;64.40;;;;;;5053849;28;20494;-71
2023/06/14 04:59:44;;;;;;;10.00;6.70;;;15.40;63.90;;;;;;5037910;28;20518;-71
2023/06/14 05:02:10;;;;;;;14.90;6.97;;;15.50;64.50;;;;;;5043950;28;20825;-71
2023/06/14 05:04:39;;;;;;;10.60;6.80;;;15.60;64.70;;;;;;5022980;28;20416;-71
2023/06/14 05:07:12;;;;;;;10.00;7.07;;;15.70;64.50;;;;;;5046913;28;20419;-72
2023/06/14 05:09:37;;;;;;;13.73;7.97;;;15.90;64.40;;;;;;5019411;28;20478;-71
2023/06/14 05:12:03;;;;;;;12.00;7.53;;;16.00;63.80;;;;;;5047057;28;20469;-72
2023/06/14 05:14:29;;;;;;;10.20;7.70;;;16.10;63.40;;;;;;5046671;28;20188;-71
2023/06/14 05:16:55;;;;;;;13.03;7.40;;;16.20;62.20;;;;;;5046511;28;20424;-70
2023/06/14 05:19:20;;;;;;;15.73;8.50;;;16.20;61.70;;;;;;5041695;28;20279;-73
2023/06/14 05:21:47;;;;;;;13.37;7.90;;;16.20;61.30;;;;;;5028954;28;20747;-72
2023/06/14 05:24:13;;;;;;;11.40;7.23;;;16.40;61.50;;;;;;5041612;28;20510;-72
2023/06/14 05:26:39;;;;;;;9.70;7.50;;;16.50;61.20;;;;;;5043987;28;20430;-72
2023/06/14 05:29:04;;;;;;;15.00;8.03;;;16.60;61.00;;;;;;5048872;28;20520;-71
2023/06/14 05:31:30;;;;;;;14.80;8.23;;;16.60;59.90;;;;;;5029564;28;20181;-72
2023/06/14 05:33:56;;;;;;;23.70;8.63;;;16.60;59.60;;;;;;5047893;28;20204;-70
2023/06/14 05:36:22;;;;;;;8.20;6.50;;;16.60;59.60;;;;;;5047708;28;20472;-72
2023/06/14 05:38:47;;;;;;;10.90;6.30;;;16.70;59.50;;;;;;5044732;28;20215;-71
2023/06/14 05:41:13;;;;;;;12.63;7.23;;;16.80;58.90;;;;;;5022566;28;20185;-70
2023/06/14 05:43:39;;;;;;;11.27;8.00;;;17.00;58.80;;;;;;5022048;28;20253;-70
2023/06/14 05:46:04;;;;;;;16.23;7.40;;;16.80;57.80;;;;;;5040992;28;20192;-72
2023/06/14 05:48:30;;;;;;;12.37;7.40;;;16.60;58.40;;;;;;5031159;28;20257;-72
2023/06/14 05:50:56;;;;;;;15.23;6.87;;;16.70;59.10;;;;;;5048908;28;20193;-70
2023/06/14 05:53:22;;;;;;;13.87;7.73;;;16.90;59.10;;;;;;5046331;28;20460;-71
2023/06/14 05:55:47;;;;;;;14.10;8.00;;;17.10;58.50;;;;;;5048817;28;20190;-72
2023/06/14 05:58:13;;;;;;;13.80;8.23;;;17.30;58.10;;;;;;5049476;28;20188;-72
2023/06/14 06:00:39;;;;;;;13.00;8.27;;;17.40;58.10;;;;;;5042116;28;20193;-70
2023/06/14 06:03:07;;;;;;;12.57;8.10;;;17.40;58.00;;;;;;5046006;28;20263;-70
2023/06/14 06:05:33;;;;;;;10.90;7.00;;;17.50;58.00;;;;;;5047917;28;20196;-72
2023/06/14 06:08:00;;;;;;;14.90;7.53;;;17.60;57.60;;;;;;5051341;28;20988;-70
2023/06/14 06:10:25;;;;;;;8.87;7.13;;;17.50;55.20;;;;;;5047451;28;20201;-71
2023/06/14 06:12:52;;;;;;;13.00;7.17;;;17.60;56.10;;;;;;5055200;28;20486;-72
2023/06/14 06:15:18;;;;;;;11.40;7.60;;;17.60;56.10;;;;;;5040710;28;20710;-71
2023/06/14 06:17:44;;;;;;;11.17;7.23;;;17.70;55.60;;;;;;5044478;28;20521;-71
2023/06/14 06:20:11;;;;;;;11.57;6.83;;;17.70;55.60;;;;;;5029748;28;20446;-71
2023/06/14 06:22:37;;;;;;;11.97;7.97;;;17.90;55.30;;;;;;5045947;28;20436;-71
2023/06/14 06:25:03;;;;;;;18.50;8.30;;;18.00;55.20;;;;;;5044007;28;20948;-70
2023/06/14 06:27:28;;;;;;;10.30;7.20;;;18.10;55.60;;;;;;5045588;28;20200;-70
2023/06/14 06:29:54;;;;;;;13.77;7.33;;;18.20;55.00;;;;;;5040401;28;20371;-71
2023/06/14 06:32:19;;;;;;;15.00;8.40;;;18.00;55.00;;;;;;5044034;28;20204;-71
2023/06/14 06:34:45;;;;;;;10.70;7.37;;;18.00;56.10;;;;;;5049824;28;20188;-71
2023/06/14 06:37:11;;;;;;;15.13;8.30;;;18.10;56.50;;;;;;5043986;28;20561;-71
2023/06/14 06:39:36;;;;;;;15.13;7.77;;;18.00;55.60;;;;;;5042239;28;20276;-71
2023/06/14 06:42:02;;;;;;;13.30;8.03;;;18.00;56.40;;;;;;5031016;28;20218;-70
2023/06/14 06:44:27;;;;;;;11.67;8.03;;;18.20;56.40;;;;;;5047945;28;20192;-71
2023/06/14 06:46:53;;;;;;;11.17;7.43;;;18.10;56.60;;;;;;5047565;28;20187;-72
2023/06/14 06:49:19;;;;;;;9.50;7.67;;;18.10;56.80;;;;;;5053003;28;20208;-71
2023/06/14 06:52:03;;;;;;;16.17;8.20;;;18.20;56.90;;;;;;5042474;28;20258;-70
2023/06/14 06:54:29;;;;;;;14.53;7.77;;;18.20;56.90;;;;;;5028997;28;20659;-71
2023/06/14 06:56:54;;;;;;;13.97;7.30;;;18.30;56.80;;;;;;5046120;28;20503;-72
2023/06/14 06:59:20;;;;;;;13.70;7.30;;;18.40;55.80;;;;;;5054241;28;20472;-71
2023/06/14 07:01:46;;;;;;;9.93;6.70;;;18.40;55.70;;;;;;5051125;28;20216;-71
2023/06/14 07:04:12;;;;;;;10.60;6.23;;;18.60;54.50;;;;;;5055776;28;20425;-73
2023/06/14 07:06:38;;;;;;;13.90;6.90;;;18.70;54.10;;;;;;5041499;28;20199;-72
2023/06/14 07:09:07;;;;;;;9.50;6.70;;;18.70;54.00;;;;;;5052633;28;20477;-73
2023/06/14 07:11:33;;;;;;;10.40;6.50;;;18.80;54.20;;;;;;5040509;28;20192;-71
2023/06/14 07:13:59;;;;;;;16.00;8.30;;;18.90;53.80;;;;;;5051842;28;20515;-71
2023/06/14 07:16:25;;;;;;;11.17;7.23;;;19.00;53.80;;;;;;5049530;28;20185;-72
2023/06/14 07:18:52;;;;;;;13.83;7.97;;;19.00;53.70;;;;;;5031273;28;20199;-73
2023/06/14 07:21:17;;;;;;;16.70;7.73;;;18.90;54.20;;;;;;5050499;28;20421;-72
2023/06/14 07:23:43;;;;;;;11.60;7.10;;;19.00;53.70;;;;;;5046990;28;20919;-72
2023/06/14 07:26:08;;;;;;;8.50;6.87;;;19.10;53.20;;;;;;5044754;28;20189;-71
2023/06/14 07:28:34;;;;;;;11.30;7.37;;;19.20;52.80;;;;;;5050348;28;20300;-71
2023/06/14 07:31:00;;;;;;;10.33;6.80;;;19.10;52.90;;;;;;5045978;28;20636;-73
2023/06/14 07:33:25;;;;;;;11.43;7.83;;;19.20;52.40;;;;;;5050527;28;20288;-72
2023/06/14 07:35:52;;;;;;;8.63;6.07;;;19.40;52.40;;;;;;5046171;28;20273;-72
2023/06/14 07:38:18;;;;;;;12.13;7.40;;;19.30;52.20;;;;;;5044078;28;20192;-71
2023/06/14 07:40:43;;;;;;;8.40;7.00;;;19.20;52.90;;;;;;5053089;28;20427;-70
2023/06/14 07:43:09;;;;;;;11.20;7.33;;;19.20;52.60;;;;;;5042707;28;20299;-72
2023/06/14 07:45:34;;;;;;;10.17;6.97;;;19.20;52.40;;;;;;5044324;28;20638;-72
2023/06/14 07:48:00;;;;;;;13.20;7.10;;;19.10;52.20;;;;;;5045257;28;20289;-75
2023/06/14 07:50:26;;;;;;;10.97;6.07;;;19.30;51.80;;;;;;5051577;28;20644;-72
2023/06/14 07:52:51;;;;;;;9.63;6.50;;;19.40;51.60;;;;;;5030866;28;20237;-72
2023/06/14 07:55:17;;;;;;;10.67;7.30;;;19.50;51.30;;;;;;5050507;28;20181;-70
2023/06/14 07:57:44;;;;;;;15.40;7.53;;;19.30;51.60;;;;;;5043829;28;20196;-72
2023/06/14 08:00:15;;;;;;;14.73;7.37;;;19.40;52.10;;;;;;5052610;28;20216;-71
2023/06/14 08:02:44;;;;;;;12.37;7.40;;;19.50;52.20;;;;;;5041734;28;20974;-70
2023/06/14 08:05:12;;;;;;;14.50;8.10;;;19.50;52.10;;;;;;5043981;28;20426;-70
2023/06/14 08:07:39;;;;;;;12.00;7.97;;;19.20;52.20;;;;;;5043662;28;20449;-70
2023/06/14 08:10:06;;;;;;;10.53;6.90;;;19.20;53.30;;;;;;5050663;28;20422;-72
2023/06/14 08:12:32;;;;;;;12.10;7.60;;;19.40;53.00;;;;;;5046368;28;20556;-71
2023/06/14 08:14:58;;;;;;;15.27;7.67;;;19.60;52.80;;;;;;5049874;28;21045;-71
2023/06/14 08:17:23;;;;;;;12.37;7.30;;;19.80;52.40;;;;;;5040691;28;20512;-70
2023/06/14 08:19:49;;;;;;;11.97;8.30;;;19.90;52.00;;;;;;5050485;28;20188;-69
2023/06/14 08:22:15;;;;;;;13.27;8.00;;;19.70;52.60;;;;;;5042157;28;20660;-70
2023/06/14 08:24:40;;;;;;;12.67;8.23;;;19.60;53.30;;;;;;5045615;28;20467;-69
2023/06/14 08:27:06;;;;;;;11.70;7.47;;;19.50;54.20;;;;;;5044004;28;20231;-70
2023/06/14 08:29:32;;;;;;;11.43;7.80;;;19.40;54.50;;;;;;5049502;28;20209;-70
2023/06/14 08:31:58;;;;;;;10.63;6.80;;;19.60;54.20;;;;;;5042217;28;20212;-70
2023/06/14 08:34:23;;;;;;;9.03;7.10;;;19.80;53.80;;;;;;5048709;28;20184;-71
2023/06/14 08:36:52;;;;;;;15.13;7.13;;;20.00;53.00;;;;;;5048253;28;20290;-71
2023/06/14 08:39:17;;;;;;;10.47;7.67;;;20.20;53.20;;;;;;5051862;28;20186;-72
2023/06/14 08:41:49;;;;;;;11.97;7.90;;;20.30;52.90;;;;;;5050379;28;20489;-71
2023/06/14 08:44:18;;;;;;;16.17;7.23;;;20.40;52.50;;;;;;5052887;28;21108;-71
2023/06/14 08:46:44;;;;;;;10.80;7.03;;;20.50;52.20;;;;;;5049420;28;21379;-72
2023/06/14 08:49:14;;;;;;;13.20;8.00;;;20.40;52.80;;;;;;5041164;28;20503;-71
2023/06/14 08:51:40;;;;;;;12.20;7.77;;;20.30;53.40;;;;;;5046426;28;20191;-71
2023/06/14 08:54:06;;;;;;;12.93;8.80;;;20.40;53.20;;;;;;5050657;28;20993;-72
2023/06/14 08:56:33;;;;;;;12.37;7.30;;;20.50;52.80;;;;;;5049670;28;20506;-71
2023/06/14 08:59:06;;;;;;;10.50;7.60;;;20.80;52.50;;;;;;5049802;28;20447;-72
2023/06/14 09:01:36;;;;;;;10.10;7.03;;;20.80;51.20;;;;;;5053512;28;20466;-72
2023/06/14 09:04:02;;;;;;;11.73;7.40;;;20.90;50.60;;;;;;5047903;28;20484;-72
2023/06/14 09:06:28;;;;;;;17.43;8.27;;;21.10;50.30;;;;;;5052031;28;21046;-72
2023/06/14 09:08:58;;;;;;;11.03;8.07;;;21.10;50.20;;;;;;5040332;28;20469;-70
2023/06/14 09:11:25;;;;;;;12.40;7.33;;;21.20;49.30;;;;;;5051408;28;20434;-70
2023/06/14 09:13:51;;;;;;;8.93;6.80;;;21.30;49.40;;;;;;5024189;28;20446;-71
2023/06/14 09:16:17;;;;;;;11.47;7.40;;;21.40;49.40;;;;;;5047351;28;20492;-71
2023/06/14 09:18:44;;;;;;;9.93;7.60;;;21.30;50.60;;;;;;5040229;28;20688;-71
2023/06/14 09:21:11;;;;;;;10.40;7.30;;;21.30;49.50;;;;;;5051166;28;20202;-71
2023/06/14 09:23:39;;;;;;;17.47;7.20;;;21.50;49.10;;;;;;5045568;28;20457;-71
2023/06/14 09:26:13;;;;;;;8.40;7.27;;;21.50;49.30;;;;;;5046292;28;20461;-71
2023/06/14 09:28:49;;;;;;;13.33;6.67;;;21.60;48.90;;;;;;5046363;28;20500;-70
2023/06/14 09:31:19;;;;;;;11.90;6.93;;;21.80;48.10;;;;;;5042746;28;20484;-71
2023/06/14 09:33:48;;;;;;;9.33;7.00;;;22.00;47.40;;;;;;5047930;28;20455;-71
2023/06/14 09:36:17;;;;;;;10.63;6.90;;;22.00;47.10;;;;;;5026595;28;20514;-71
2023/06/14 09:39:04;;;;;;;11.63;7.47;;;21.80;47.70;;;;;;5047412;28;20482;-71
2023/06/14 09:41:32;;;;;;;11.73;6.67;;;21.90;48.10;;;;;;5041548;28;20427;-70
2023/06/14 09:44:00;;;;;;;10.93;7.47;;;22.10;47.80;;;;;;5050078;28;20447;-70
2023/06/14 09:46:27;;;;;;;10.33;7.43;;;22.00;47.90;;;;;;5041572;28;20854;-70
2023/06/14 09:48:52;;;;;;;14.07;8.00;;;21.70;49.10;;;;;;5048415;28;20560;-70
2023/06/14 09:51:20;;;;;;;11.13;7.57;;;21.90;49.10;;;;;;5040370;28;20838;-70
2023/06/14 09:53:48;;;;;;;11.13;7.80;;;22.10;49.30;;;;;;5049075;28;20613;-73
2023/06/14 09:56:22;;;;;;;12.20;7.70;;;22.20;47.00;;;;;;5040309;28;20496;-70
2023/06/14 09:58:52;;;;;;;10.53;7.67;;;22.10;47.50;;;;;;5042912;28;20450;-70
2023/06/14 10:01:19;;;;;;;15.30;6.37;;;22.10;47.50;;;;;;5041024;28;20439;-71
2023/06/14 10:03:46;;;;;;;17.33;8.00;;;22.30;46.30;;;;;;5044746;28;20469;-70
2023/06/14 10:06:12;;;;;;;12.47;7.70;;;22.50;46.90;;;;;;5049137;28;20510;-71
2023/06/14 10:08:38;;;;;;;13.07;7.10;;;22.40;45.40;;;;;;5043923;28;20635;-72
2023/06/14 10:11:04;;;;;;;10.13;6.53;;;22.50;45.10;;;;;;5047559;28;20415;-70
2023/06/14 10:13:33;;;;;;;7.63;6.20;;;22.40;45.50;;;;;;5042333;28;20456;-71
2023/06/14 10:16:02;;;;;;;8.10;5.77;;;22.50;45.00;;;;;;5049485;28;20174;-71
2023/06/14 10:18:50;;;;;;;10.93;6.67;;;22.80;44.90;;;;;;5041908;28;20955;-71
2023/06/14 10:21:23;;;;;;;16.63;6.40;;;23.00;41.50;;;;;;5042836;28;20470;-69
2023/06/14 10:23:49;;;;;;;10.43;5.93;;;23.20;40.70;;;;;;5040849;28;20467;-71
2023/06/14 10:26:23;;;;;;;13.53;6.80;;;23.80;39.50;;;;;;5049462;28;20416;-71
2023/06/14 10:29:11;;;;;;;10.87;6.70;;;23.70;39.80;;;;;;5044726;28;20462;-71
2023/06/14 10:31:44;;;;;;;12.97;6.07;;;23.00;41.90;;;;;;5047814;28;20424;-71
2023/06/14 10:34:11;;;;;;;10.57;5.33;;;23.40;41.50;;;;;;5047871;28;20457;-70
2023/06/14 10:36:41;;;;;;;10.93;7.13;;;24.20;40.40;;;;;;5045930;28;20415;-70
2023/06/14 10:39:15;;;;;;;13.87;6.93;;;24.10;40.70;;;;;;5049589;28;20415;-71
2023/06/14 10:41:41;;;;;;;8.07;6.60;;;23.70;42.40;;;;;;5048221;28;20422;-71
2023/06/14 10:44:13;;;;;;;11.30;7.17;;;23.70;42.30;;;;;;5057478;28;20417;-70
2023/06/14 10:47:00;;;;;;;12.03;7.20;;;23.00;43.20;;;;;;5049253;28;20449;-72
2023/06/14 10:49:43;;;;;;;10.70;7.30;;;23.20;43.00;;;;;;5052412;28;20886;-71
2023/06/14 10:52:16;;;;;;;9.70;6.83;;;24.00;40.70;;;;;;5052873;28;20947;-70
2023/06/14 10:55:05;;;;;;;11.23;6.30;;;24.60;40.40;;;;;;5034496;28;20423;-73
2023/06/14 10:57:32;;;;;;;8.00;6.60;;;25.00;38.40;;;;;;5048293;28;20475;-73
2023/06/14 10:59:59;;;;;;;7.50;5.83;;;25.30;37.50;;;;;;5037765;28;20445;-70
2023/06/14 11:02:34;;;;;;;10.37;6.90;;;25.20;37.60;;;;;;5045583;28;20514;-71
2023/06/14 11:05:05;;;;;;;11.50;7.03;;;25.20;37.10;;;;;;5048808;28;20441;-70
2023/06/14 11:07:58;;;;;;;11.80;7.30;;;24.30;38.40;;;;;;5047440;28;20979;-70
2023/06/14 11:10:40;;;;;;;9.70;5.80;;;23.80;39.50;;;;;;5041853;28;20443;-71
2023/06/14 11:13:09;;;;;;;7.47;6.10;;;23.30;40.60;;;;;;5051296;28;20474;-72
2023/06/14 11:15:36;;;;;;;12.80;6.57;;;23.20;40.70;;;;;;5041614;28;20446;-71
2023/06/14 11:18:04;;;;;;;9.50;6.70;;;22.90;41.40;;;;;;5035334;28;20455;-74
2023/06/14 11:20:32;;;;;;;10.33;6.90;;;23.20;40.60;;;;;;5042586;28;21003;-73
2023/06/14 11:22:57;;;;;;;12.57;6.10;;;23.30;40.00;;;;;;5048807;28;20556;-70
2023/06/14 11:25:24;;;;;;;8.07;5.50;;;23.70;39.50;;;;;;5040288;28;20507;-70
2023/06/14 11:27:50;;;;;;;8.60;5.57;;;24.60;37.80;;;;;;5045402;28;20191;-72
2023/06/14 11:30:16;;;;;;;9.30;6.17;;;25.40;35.90;;;;;;5041127;28;20919;-71
2023/06/14 11:32:45;;;;;;;9.50;5.70;;;25.50;35.60;;;;;;5049038;28;20518;-70
2023/06/14 11:35:11;;;;;;;12.80;7.10;;;25.40;35.90;;;;;;5048193;28;20426;-72
2023/06/14 11:37:37;;;;;;;9.43;6.17;;;24.30;36.70;;;;;;5044660;28;21117;-70
2023/06/14 11:40:09;;;;;;;8.40;5.60;;;23.40;38.40;;;;;;5047450;28;20191;-71
2023/06/14 11:42:35;;;;;;;9.97;6.73;;;24.00;37.60;;;;;;5048275;28;20456;-72
2023/06/14 11:45:02;;;;;;;11.07;6.90;;;24.00;37.50;;;;;;5047530;28;20441;-71
2023/06/14 11:47:32;;;;;;;8.63;7.13;;;24.00;36.70;;;;;;5046091;28;20425;-71
2023/06/14 11:49:59;;;;;;;8.13;6.20;;;23.60;36.40;;;;;;5049030;28;20423;-70
2023/06/14 11:52:24;;;;;;;7.70;6.00;;;23.40;37.00;;;;;;5046065;28;20534;-71
2023/06/14 11:54:50;;;;;;;7.10;4.70;;;23.70;37.20;;;;;;5051871;28;20420;-71
2023/06/14 11:57:18;;;;;;;11.87;5.67;;;24.50;34.90;;;;;;5043557;28;20183;-71
2023/06/14 11:59:44;;;;;;;11.30;6.03;;;25.20;34.50;;;;;;5047851;28;20195;-73
2023/06/14 12:02:13;;;;;;;7.50;5.57;;;25.50;33.90;;;;;;5045748;28;20446;-70
2023/06/14 12:04:41;;;;;;;8.80;6.00;;;25.80;33.10;;;;;;5046355;28;20488;-71
2023/06/14 12:07:19;;;;;;;11.50;6.30;;;25.60;33.10;;;;;;5043817;28;20425;-70
2023/06/14 12:09:54;;;;;;;8.70;5.90;;;25.30;33.50;;;;;;5049460;28;20553;-71
2023/06/14 12:12:25;;;;;;;7.27;5.40;;;25.10;34.30;;;;;;5038907;28;20826;-71
2023/06/14 12:14:51;;;;;;;11.50;6.37;;;25.50;34.40;;;;;;5049011;28;20462;-71
2023/06/14 12:17:17;;;;;;;7.83;5.97;;;24.80;35.70;;;;;;5038814;28;20417;-71
2023/06/14 12:19:44;;;;;;;9.70;6.77;;;25.00;35.70;;;;;;5048764;28;20918;-70
2023/06/14 12:22:12;;;;;;;9.20;6.23;;;25.10;34.90;;;;;;5046073;28;21032;-70
2023/06/14 12:24:38;;;;;;;10.00;6.50;;;24.10;36.20;;;;;;5043882;28;20422;-71
2023/06/14 12:27:04;;;;;;;9.33;5.90;;;24.50;35.50;;;;;;5045566;28;20757;-70
2023/06/14 12:29:33;;;;;;;12.97;6.83;;;24.00;36.70;;;;;;5026539;28;20468;-71
2023/06/14 12:31:59;;;;;;;8.37;5.50;;;23.70;38.00;;;;;;5031887;28;20971;-71
2023/06/14 12:34:24;;;;;;;9.67;5.83;;;24.00;36.60;;;;;;5042221;28;20547;-73
2023/06/14 12:36:50;;;;;;;8.13;5.43;;;23.70;36.80;;;;;;5048622;28;20183;-71
2023/06/14 12:39:16;;;;;;;6.70;5.50;;;23.50;37.20;;;;;;5043835;28;20188;-70
2023/06/14 12:41:42;;;;;;;10.73;6.33;;;23.80;36.80;;;;;;5048165;28;20434;-74